Time;durP1;ratioP1;P1;durP2;ratioP2;P2;SDS_P1;SDS_P2;PMS_P1;PMS_P2;Temp;Humidity;BMP_temperature;BMP_pressure;BME280_temperature;BME280_humidity;BME280_pressure;Samples;Min_cycle;Max_cycle;Signal;HPM_P1;HPM_P2
2023/05/16 00:00:19;;;;;;;32.80;22.80;;;26.90;99.90;;;;;;5055025;28;20092;-58
2023/05/16 00:02:45;;;;;;;32.83;22.58;;;26.90;99.90;;;;;;5055069;28;20033;-60
2023/05/16 00:05:13;;;;;;;35.00;23.52;;;26.80;99.90;;;;;;5055323;28;20509;-59
2023/05/16 00:07:42;;;;;;;32.65;22.75;;;26.80;99.90;;;;;;5055011;28;20033;-59
2023/05/16 00:10:09;;;;;;;35.42;22.67;;;26.90;99.90;;;;;;5054895;28;20067;-57
2023/05/16 00:12:36;;;;;;;36.47;24.08;;;26.80;99.90;;;;;;5053344;28;20029;-58
2023/05/16 00:15:04;;;;;;;33.03;23.17;;;26.90;99.90;;;;;;5043280;28;20066;-58
2023/05/16 00:17:30;;;;;;;37.58;23.75;;;26.80;99.90;;;;;;5054793;28;20488;-57
2023/05/16 00:19:57;;;;;;;30.35;22.20;;;26.80;99.90;;;;;;5036988;28;20017;-59
2023/05/16 00:22:24;;;;;;;;;;;26.80;99.90;;;;;;5055414;28;20109;-58
2023/05/16 00:24:49;;;;;;;33.55;22.25;;;26.80;99.90;;;;;;5054880;28;20003;-59
2023/05/16 00:27:15;;;;;;;32.38;22.20;;;26.80;99.90;;;;;;5054588;28;20180;-58
2023/05/16 00:29:41;;;;;;;37.65;21.42;;;26.80;99.90;;;;;;5054511;28;20029;-59
2023/05/16 00:32:07;;;;;;;32.25;22.15;;;26.80;99.90;;;;;;5052845;28;20515;-58
2023/05/16 00:34:34;;;;;;;32.25;21.48;;;26.80;99.90;;;;;;5054604;28;20017;-58
2023/05/16 00:37:00;;;;;;;33.63;22.10;;;26.80;99.90;;;;;;5050458;28;20040;-58
2023/05/16 00:39:26;;;;;;;34.83;22.52;;;26.80;99.90;;;;;;5045873;28;20100;-59
2023/05/16 00:41:52;;;;;;;30.98;22.02;;;26.80;99.90;;;;;;5054060;28;20546;-58
2023/05/16 00:44:18;;;;;;;29.20;22.02;;;26.80;99.90;;;;;;5054528;28;20025;-58
2023/05/16 00:46:43;;;;;;;33.47;23.25;;;26.80;99.90;;;;;;5051463;28;20029;-59
2023/05/16 00:49:10;;;;;;;31.58;21.90;;;26.80;99.90;;;;;;5034596;28;20105;-58
2023/05/16 00:51:38;;;;;;;32.27;20.97;;;26.70;99.90;;;;;;5048937;28;20086;-57
2023/05/16 00:54:04;;;;;;;;;;;26.70;99.90;;;;;;5054769;28;20032;-58
2023/05/16 00:56:30;;;;;;;31.40;20.97;;;26.70;99.90;;;;;;5053932;28;19999;-59
2023/05/16 00:58:56;;;;;;;25.70;19.38;;;26.70;99.90;;;;;;5054271;28;20357;-57
2023/05/16 01:01:24;;;;;;;32.85;20.52;;;26.70;99.90;;;;;;5057022;22;20476;-55
2023/05/16 01:03:50;;;;;;;29.20;19.67;;;26.70;99.90;;;;;;5032988;28;20362;-54
2023/05/16 01:06:15;;;;;;;27.90;19.58;;;26.70;99.90;;;;;;5034361;28;20036;-54
2023/05/16 01:08:41;;;;;;;25.88;17.63;;;26.70;99.90;;;;;;5034189;28;20125;-54
2023/05/16 01:11:31;;;;;;;28.77;18.45;;;26.70;99.90;;;;;;5034253;28;20108;-54
2023/05/16 01:14:05;;;;;;;26.95;18.30;;;26.70;99.90;;;;;;5034192;28;20123;-53
2023/05/16 01:16:41;;;;;;;28.65;19.27;;;26.70;99.90;;;;;;5034180;28;20021;-53
2023/05/16 01:19:17;;;;;;;28.17;18.90;;;26.70;99.90;;;;;;5033951;28;20120;-53
2023/05/16 01:22:05;;;;;;;25.70;19.00;;;26.60;99.90;;;;;;5034084;28;20017;-52
2023/05/16 01:24:43;;;;;;;28.08;18.45;;;26.60;99.90;;;;;;5032956;28;20033;-52
2023/05/16 01:27:11;;;;;;;25.33;18.00;;;26.60;99.90;;;;;;5033899;28;20061;-52
2023/05/16 01:29:36;;;;;;;27.70;17.15;;;26.60;99.90;;;;;;5033808;28;20022;-53
2023/05/16 01:32:02;;;;;;;24.40;16.92;;;26.60;99.90;;;;;;5033925;28;20382;-52
2023/05/16 01:34:28;;;;;;;26.05;17.40;;;26.60;99.90;;;;;;5033889;28;20124;-54
2023/05/16 01:37:01;;;;;;;23.20;16.58;;;26.60;99.90;;;;;;5033845;28;20021;-53
2023/05/16 01:39:43;;;;;;;27.05;18.40;;;26.60;99.90;;;;;;5033586;28;20032;-55
2023/05/16 01:42:15;;;;;;;24.33;16.55;;;26.60;99.90;;;;;;5032319;28;20057;-54
2023/05/16 01:44:47;;;;;;;23.20;17.00;;;26.60;99.90;;;;;;5033732;28;20544;-53
2023/05/16 01:47:16;;;;;;;27.63;18.25;;;26.60;99.90;;;;;;5033362;28;20091;-55
2023/05/16 01:49:59;;;;;;;26.77;17.67;;;26.60;99.90;;;;;;5033487;28;20040;-53
2023/05/16 01:53:08;;;;;;;23.25;16.73;;;26.50;99.90;;;;;;5033310;28;20021;-53
2023/05/16 01:55:43;;;;;;;25.23;17.45;;;26.50;99.90;;;;;;5033379;28;20013;-54
2023/05/16 01:58:10;;;;;;;26.40;17.55;;;26.60;99.90;;;;;;5033694;28;20021;-53
2023/05/16 02:00:35;;;;;;;23.23;16.35;;;26.50;99.90;;;;;;5046020;22;20455;-57
2023/05/16 02:03:01;;;;;;;22.83;16.98;;;26.60;99.90;;;;;;5033392;28;20026;-57
2023/05/16 02:05:27;;;;;;;25.48;16.90;;;26.50;99.90;;;;;;5031946;28;20013;-57
2023/05/16 02:07:53;;;;;;;24.23;16.55;;;26.50;99.90;;;;;;5032663;28;20120;-58
2023/05/16 02:10:19;;;;;;;26.77;15.63;;;26.50;99.90;;;;;;5015622;28;20025;-57
2023/05/16 02:12:45;;;;;;;23.33;17.20;;;26.50;99.90;;;;;;5019589;28;20017;-58
2023/05/16 02:15:11;;;;;;;21.52;15.35;;;26.50;99.90;;;;;;5033039;28;20503;-57
2023/05/16 02:17:36;;;;;;;23.77;15.98;;;26.50;99.90;;;;;;5032894;28;20034;-58
2023/05/16 02:20:05;;;;;;;23.95;16.90;;;26.50;99.90;;;;;;5032884;28;20053;-59
2023/05/16 02:22:32;;;;;;;22.25;15.57;;;26.50;99.90;;;;;;5032974;28;20029;-59
2023/05/16 02:25:00;;;;;;;21.70;15.65;;;26.40;99.90;;;;;;5032895;28;20024;-59
2023/05/16 02:27:25;;;;;;;19.98;13.95;;;26.40;99.90;;;;;;5032136;28;20508;-59
2023/05/16 02:29:51;;;;;;;20.23;15.65;;;26.40;99.90;;;;;;5015333;28;20029;-58
2023/05/16 02:32:17;;;;;;;24.75;15.20;;;26.40;99.90;;;;;;5032669;28;20464;-59
2023/05/16 02:34:43;;;;;;;20.75;15.15;;;26.40;99.90;;;;;;5015306;28;20025;-58
2023/05/16 02:37:08;;;;;;;18.10;14.57;;;26.50;99.90;;;;;;5025071;28;20377;-59
2023/05/16 02:39:34;;;;;;;20.90;14.73;;;26.40;99.90;;;;;;5035394;28;20021;-59
2023/05/16 02:42:00;;;;;;;21.50;15.05;;;26.40;99.90;;;;;;5036881;28;20025;-58
2023/05/16 02:44:26;;;;;;;21.77;14.90;;;26.40;99.90;;;;;;5023498;28;20018;-59
2023/05/16 02:46:51;;;;;;;20.67;15.55;;;26.40;99.90;;;;;;5036617;28;20017;-60
2023/05/16 02:49:17;;;;;;;20.40;14.35;;;26.30;99.90;;;;;;5036405;28;20037;-58
2023/05/16 02:51:44;;;;;;;17.98;14.23;;;26.40;99.90;;;;;;5036751;28;20026;-58
2023/05/16 02:54:09;;;;;;;18.20;14.10;;;26.30;99.90;;;;;;5036125;28;20021;-58
2023/05/16 02:56:36;;;;;;;21.00;13.65;;;26.40;99.90;;;;;;5029201;28;20026;-59
2023/05/16 02:59:03;;;;;;;21.70;13.82;;;26.30;99.90;;;;;;5030777;28;20497;-59
2023/05/16 03:01:29;;;;;;;20.33;14.32;;;26.40;99.90;;;;;;5048925;22;20050;-53
2023/05/16 03:03:54;;;;;;;17.27;12.70;;;26.30;99.90;;;;;;5036539;28;20108;-53
2023/05/16 03:06:20;;;;;;;18.23;13.30;;;26.30;99.90;;;;;;5036431;28;20141;-55
2023/05/16 03:08:46;;;;;;;19.67;13.23;;;26.30;99.90;;;;;;5036480;28;20061;-53
2023/05/16 03:11:13;;;;;;;20.85;13.23;;;26.30;99.90;;;;;;5036449;28;20022;-54
2023/05/16 03:13:39;;;;;;;16.58;11.85;;;26.30;99.90;;;;;;5036381;28;20044;-53
2023/05/16 03:16:05;;;;;;;19.45;12.68;;;26.30;99.90;;;;;;5034969;28;20485;-53
2023/05/16 03:18:32;;;;;;;17.27;12.40;;;26.30;99.90;;;;;;5036409;28;20025;-53
2023/05/16 03:20:58;;;;;;;15.40;11.93;;;26.30;99.90;;;;;;5036092;28;20018;-53
2023/05/16 03:23:24;;;;;;;15.25;11.27;;;26.30;99.90;;;;;;5036237;28;20147;-53
2023/05/16 03:25:50;;;;;;;14.98;11.02;;;26.30;99.90;;;;;;5036018;28;20041;-53
2023/05/16 03:28:17;;;;;;;16.38;11.65;;;26.30;99.90;;;;;;5036049;28;20037;-53
2023/05/16 03:30:43;;;;;;;17.20;11.80;;;26.30;99.90;;;;;;5036110;28;20080;-54
2023/05/16 03:33:08;;;;;;;15.77;11.38;;;26.30;99.90;;;;;;5036148;28;20022;-53
2023/05/16 03:35:35;;;;;;;15.65;10.63;;;26.30;99.90;;;;;;5036089;28;20045;-53
2023/05/16 03:38:01;;;;;;;14.23;10.43;;;26.30;99.90;;;;;;5036341;28;20053;-53
2023/05/16 03:40:27;;;;;;;18.05;10.45;;;26.30;99.90;;;;;;5035788;28;20076;-53
2023/05/16 03:42:53;;;;;;;16.20;9.80;;;26.30;99.90;;;;;;5035896;28;20104;-54
2023/05/16 03:45:19;;;;;;;14.20;10.75;;;26.30;99.90;;;;;;5035905;28;20104;-54
2023/05/16 03:47:45;;;;;;;14.52;9.77;;;26.30;99.90;;;;;;5034538;28;20087;-53
2023/05/16 03:50:10;;;;;;;13.85;9.98;;;26.30;99.90;;;;;;5035833;28;20075;-53
2023/05/16 03:52:37;;;;;;;12.65;9.57;;;26.30;99.90;;;;;;5035516;28;20480;-52
2023/05/16 03:55:04;;;;;;;13.63;9.75;;;26.30;99.90;;;;;;5035644;28;20021;-54
2023/05/16 03:57:31;;;;;;;13.15;9.55;;;26.30;99.90;;;;;;5050876;28;20037;-53
2023/05/16 03:59:57;;;;;;;11.38;8.63;;;26.20;99.90;;;;;;5035860;28;20018;-55
2023/05/16 04:02:23;;;;;;;11.25;8.35;;;26.30;99.90;;;;;;5035774;28;20484;-53
2023/05/16 04:04:48;;;;;;;11.80;8.80;;;26.20;99.90;;;;;;5035622;28;20043;-53
2023/05/16 04:07:14;;;;;;;13.50;8.60;;;26.20;99.90;;;;;;5035387;28;20115;-52
2023/05/16 04:09:40;;;;;;;11.77;8.52;;;26.20;99.90;;;;;;5035445;28;20033;-52
2023/05/16 04:12:06;;;;;;;11.88;8.88;;;26.20;99.90;;;;;;5035365;28;20376;-53
2023/05/16 04:14:34;;;;;;;12.43;7.75;;;26.20;99.90;;;;;;5035127;28;20032;-52
2023/05/16 04:17:00;;;;;;;10.43;8.20;;;26.20;99.90;;;;;;5033932;28;20497;-52
2023/05/16 04:19:25;;;;;;;10.48;7.55;;;26.20;99.90;;;;;;5034969;28;20096;-52
2023/05/16 04:21:51;;;;;;;8.73;7.22;;;26.20;99.90;;;;;;5035078;28;20049;-52
2023/05/16 04:24:17;;;;;;;9.45;7.75;;;26.20;99.90;;;;;;5034945;28;20104;-52
2023/05/16 04:26:43;;;;;;;10.25;6.97;;;26.20;99.90;;;;;;5034923;28;20022;-53
2023/05/16 04:29:09;;;;;;;9.25;6.25;;;26.20;99.90;;;;;;5034819;28;20100;-54
2023/05/16 04:31:36;;;;;;;10.23;7.22;;;26.20;99.90;;;;;;5035047;28;20021;-53
2023/05/16 04:34:02;;;;;;;10.30;6.38;;;26.20;99.90;;;;;;5034995;28;20064;-54
2023/05/16 04:36:29;;;;;;;8.80;6.50;;;26.20;99.90;;;;;;5033557;28;20029;-56
2023/05/16 04:38:55;;;;;;;10.77;6.38;;;26.20;99.90;;;;;;5034741;28;20021;-56
2023/05/16 04:41:22;;;;;;;9.07;6.53;;;26.20;99.90;;;;;;5034731;28;20552;-56
2023/05/16 04:43:48;;;;;;;10.60;6.80;;;26.20;99.90;;;;;;5034598;28;20060;-57
2023/05/16 04:46:14;;;;;;;8.13;6.00;;;26.20;99.90;;;;;;5034785;28;20053;-56
2023/05/16 04:48:40;;;;;;;10.65;5.80;;;26.20;99.90;;;;;;5034379;28;20058;-55
2023/05/16 04:51:06;;;;;;;6.75;5.55;;;26.20;99.90;;;;;;5034504;28;20025;-56
2023/05/16 04:53:32;;;;;;;8.15;5.75;;;26.20;99.90;;;;;;5034451;28;20397;-54
2023/05/16 04:55:59;;;;;;;9.00;6.32;;;26.20;99.90;;;;;;5034661;28;20033;-54
2023/05/16 04:58:25;;;;;;;8.05;5.43;;;26.20;99.90;;;;;;5034352;28;20048;-54
2023/05/16 05:00:51;;;;;;;7.15;5.03;;;26.10;99.90;;;;;;5034275;28;20485;-54
2023/05/16 05:03:17;;;;;;;9.93;5.53;;;26.10;99.90;;;;;;5034308;28;20029;-54
2023/05/16 05:05:43;;;;;;;9.88;5.43;;;26.10;99.90;;;;;;5034192;28;20029;-54
2023/05/16 05:08:09;;;;;;;6.53;5.18;;;26.10;99.90;;;;;;5032817;28;20029;-54
2023/05/16 05:10:35;;;;;;;7.07;5.32;;;26.10;99.90;;;;;;5034054;28;20021;-54
2023/05/16 05:13:01;;;;;;;6.05;4.97;;;26.10;99.90;;;;;;5034165;28;20020;-54
2023/05/16 05:15:27;;;;;;;7.07;5.00;;;26.10;99.90;;;;;;5033858;28;20025;-53
2023/05/16 05:17:53;;;;;;;8.23;5.03;;;26.10;99.90;;;;;;5034011;28;20068;-54
2023/05/16 05:20:18;;;;;;;5.78;4.13;;;26.10;99.90;;;;;;5032755;28;20557;-54
2023/05/16 05:22:44;;;;;;;7.65;4.47;;;26.10;99.90;;;;;;5033816;28;20389;-54
2023/05/16 05:25:10;;;;;;;5.60;4.65;;;26.10;99.90;;;;;;5034103;28;20025;-54
2023/05/16 05:27:36;;;;;;;6.07;4.07;;;26.10;99.90;;;;;;5033716;28;20183;-53
2023/05/16 05:30:02;;;;;;;6.80;4.38;;;26.10;99.90;;;;;;5033967;28;20030;-54
2023/05/16 05:32:28;;;;;;;5.93;4.07;;;26.10;99.90;;;;;;5033627;28;20381;-54
2023/05/16 05:34:54;;;;;;;6.22;3.58;;;26.00;99.90;;;;;;5033826;28;20017;-54
2023/05/16 05:37:20;;;;;;;6.03;3.67;;;26.10;99.90;;;;;;5033537;28;20024;-55
2023/05/16 05:39:46;;;;;;;4.95;3.80;;;26.00;99.90;;;;;;5033597;28;20025;-55
2023/05/16 05:42:12;;;;;;;4.65;3.58;;;26.10;99.90;;;;;;5033448;28;20480;-54
2023/05/16 05:44:37;;;;;;;6.03;4.13;;;26.10;99.90;;;;;;5033650;28;20103;-54
2023/05/16 05:47:05;;;;;;;4.47;3.10;;;26.10;99.90;;;;;;5033235;28;20026;-54
2023/05/16 05:49:31;;;;;;;7.07;3.72;;;26.00;99.90;;;;;;5033559;28;20064;-53
2023/05/16 05:51:57;;;;;;;4.68;3.10;;;26.00;99.90;;;;;;5032951;28;20022;-52
2023/05/16 05:54:23;;;;;;;5.32;2.90;;;26.00;99.90;;;;;;5033407;28;20091;-52
2023/05/16 05:56:48;;;;;;;7.75;2.50;;;26.00;99.90;;;;;;5033354;28;20022;-52
2023/05/16 05:59:15;;;;;;;7.88;2.78;;;26.00;99.90;;;;;;5033150;28;20017;-53
2023/05/16 06:01:41;;;;;;;4.72;2.22;;;26.00;99.90;;;;;;5032987;28;20467;-53
2023/05/16 06:04:07;;;;;;;13.35;2.55;;;26.00;99.90;;;;;;5032992;28;20014;-53
2023/05/16 06:06:32;;;;;;;6.57;2.10;;;26.00;99.90;;;;;;5033146;28;20358;-52
2023/05/16 06:08:58;;;;;;;3.03;2.13;;;26.00;99.90;;;;;;5033037;28;20037;-52
2023/05/16 06:11:24;;;;;;;4.00;2.35;;;26.00;99.90;;;;;;5019040;28;20030;-53
2023/05/16 06:13:51;;;;;;;4.15;2.20;;;26.00;99.90;;;;;;5031660;28;20052;-55
2023/05/16 06:16:16;;;;;;;3.40;2.05;;;26.00;99.90;;;;;;5033063;28;20099;-52
2023/05/16 06:18:43;;;;;;;2.83;1.92;;;26.00;99.90;;;;;;5032717;28;20528;-54
2023/05/16 06:21:08;;;;;;;5.65;2.30;;;26.00;99.90;;;;;;5025718;28;20025;-53
2023/05/16 06:23:34;;;;;;;3.83;2.10;;;26.00;99.90;;;;;;5024644;28;20043;-54
2023/05/16 06:26:02;;;;;;;5.45;2.08;;;26.00;99.90;;;;;;5033054;28;20032;-52
2023/05/16 06:28:28;;;;;;;6.22;2.00;;;25.90;99.90;;;;;;5032950;28;20037;-56
2023/05/16 06:30:54;;;;;;;8.38;2.65;;;26.00;99.90;;;;;;5032498;28;20503;-54
2023/05/16 06:33:20;;;;;;;4.47;2.28;;;26.00;99.90;;;;;;5032917;28;20030;-54
2023/05/16 06:35:49;;;;;;;4.28;1.98;;;26.00;99.90;;;;;;5031617;28;20542;-55
2023/05/16 06:38:15;;;;;;;3.67;2.17;;;26.00;99.90;;;;;;5031702;28;20030;-54
2023/05/16 06:40:41;;;;;;;6.38;2.10;;;26.00;99.90;;;;;;5029011;28;20023;-50
2023/05/16 06:43:07;;;;;;;3.05;1.88;;;26.00;99.90;;;;;;5039726;28;20025;-51
2023/05/16 06:45:33;;;;;;;2.95;1.95;;;26.00;99.90;;;;;;5044497;28;20039;-53
2023/05/16 06:47:58;;;;;;;3.60;1.95;;;26.00;99.90;;;;;;5032184;28;20021;-54
2023/05/16 06:50:24;;;;;;;4.10;2.28;;;26.00;99.90;;;;;;5031739;28;20389;-53
2023/05/16 06:52:50;;;;;;;6.28;2.20;;;26.00;99.90;;;;;;5035009;28;20013;-54
2023/05/16 06:55:16;;;;;;;3.22;2.08;;;26.00;99.90;;;;;;5032088;28;20044;-53
2023/05/16 06:57:42;;;;;;;7.22;2.13;;;26.00;99.90;;;;;;5042768;28;20033;-54
2023/05/16 07:00:08;;;;;;;2.38;1.70;;;26.00;99.90;;;;;;5031785;28;20021;-53
2023/05/16 07:02:34;;;;;;;5.45;2.60;;;26.00;99.90;;;;;;5031649;28;20501;-54
2023/05/16 07:05:00;;;;;;;4.57;2.05;;;26.00;99.90;;;;;;5037915;28;20017;-53
2023/05/16 07:07:25;;;;;;;5.15;2.30;;;26.00;99.90;;;;;;5040782;28;20021;-52
2023/05/16 07:09:51;;;;;;;4.25;2.20;;;26.00;99.90;;;;;;5040966;28;20489;-52
2023/05/16 07:12:17;;;;;;;8.38;2.83;;;26.00;99.90;;;;;;5033849;28;20028;-54
2023/05/16 07:14:43;;;;;;;3.58;2.38;;;26.00;99.90;;;;;;5031475;28;20032;-52
2023/05/16 07:17:10;;;;;;;6.93;2.83;;;26.00;99.90;;;;;;5030770;28;20021;-52
2023/05/16 07:19:36;;;;;;;6.40;2.75;;;26.00;99.90;;;;;;5045884;28;20025;-52
2023/05/16 07:22:01;;;;;;;4.78;2.40;;;26.00;99.90;;;;;;5036301;28;20503;-52
2023/05/16 07:24:27;;;;;;;8.43;2.67;;;26.00;99.90;;;;;;5035127;28;20027;-54
2023/05/16 07:26:53;;;;;;;5.60;2.30;;;26.00;99.90;;;;;;5035379;28;20052;-52
2023/05/16 07:29:19;;;;;;;4.95;2.50;;;26.00;99.90;;;;;;5038037;28;20045;-52
2023/05/16 07:31:45;;;;;;;4.35;3.05;;;26.10;99.90;;;;;;5033969;28;20021;-53
2023/05/16 07:34:11;;;;;;;2.63;1.98;;;26.10;99.90;;;;;;5035117;28;20432;-55
2023/05/16 07:36:37;;;;;;;7.28;2.40;;;26.10;99.90;;;;;;5047295;28;20060;-53
2023/05/16 07:39:03;;;;;;;5.25;3.00;;;26.10;99.90;;;;;;5034965;28;20025;-53
2023/05/16 07:41:30;;;;;;;4.78;2.58;;;26.10;99.90;;;;;;5035021;28;20377;-53
2023/05/16 07:43:55;;;;;;;5.53;2.67;;;26.10;99.90;;;;;;5035121;28;20476;-53
2023/05/16 07:46:21;;;;;;;6.68;2.60;;;26.10;99.90;;;;;;5045577;28;20087;-54
2023/05/16 07:48:47;;;;;;;5.35;2.83;;;26.10;99.90;;;;;;5035746;28;20041;-54
2023/05/16 07:51:13;;;;;;;7.15;2.63;;;26.10;99.90;;;;;;5042250;28;20078;-53
2023/05/16 07:53:39;;;;;;;5.13;2.80;;;26.10;99.90;;;;;;5035017;28;20426;-55
2023/05/16 07:56:05;;;;;;;5.60;3.20;;;26.10;99.90;;;;;;5034604;28;20470;-54
2023/05/16 07:58:32;;;;;;;3.90;2.90;;;26.10;99.90;;;;;;5037600;28;20040;-53
2023/05/16 08:00:58;;;;;;;8.02;3.00;;;26.10;99.90;;;;;;5040802;28;20371;-53
2023/05/16 08:03:24;;;;;;;5.18;3.25;;;26.10;99.90;;;;;;5033507;28;20091;-53
2023/05/16 08:05:50;;;;;;;4.45;3.00;;;26.10;99.90;;;;;;5034038;28;20013;-53
2023/05/16 08:08:16;;;;;;;6.35;3.28;;;26.10;99.90;;;;;;5034450;28;20366;-53
2023/05/16 08:10:42;;;;;;;4.80;2.97;;;26.10;99.90;;;;;;5036769;28;20018;-53
2023/05/16 08:13:08;;;;;;;6.63;3.05;;;26.10;99.90;;;;;;5034322;28;20036;-52
2023/05/16 08:15:34;;;;;;;3.97;2.42;;;26.10;99.90;;;;;;5032792;28;20477;-51
2023/05/16 08:18:00;;;;;;;4.47;2.00;;;26.20;99.90;;;;;;5034500;28;20025;-51
2023/05/16 08:20:26;;;;;;;4.88;1.70;;;26.10;99.90;;;;;;5034221;28;20021;-50
2023/05/16 08:22:53;;;;;;;4.20;2.00;;;26.20;99.90;;;;;;5034277;28;20057;-50
2023/05/16 08:25:19;;;;;;;3.78;1.70;;;26.10;99.90;;;;;;5034030;28;20492;-52
2023/05/16 08:27:46;;;;;;;10.70;2.03;;;26.10;99.90;;;;;;5041905;28;20061;-51
2023/05/16 08:30:12;;;;;;;4.83;1.63;;;26.10;99.90;;;;;;5033848;28;20060;-51
2023/05/16 08:32:38;;;;;;;5.50;1.60;;;26.20;99.90;;;;;;5038516;28;20258;-50
2023/05/16 08:35:05;;;;;;;5.13;2.22;;;26.20;99.90;;;;;;5036811;28;20037;-52
2023/05/16 08:37:30;;;;;;;3.33;1.33;;;26.10;99.90;;;;;;5032637;28;20374;-53
2023/05/16 08:39:57;;;;;;;5.03;1.90;;;26.20;99.90;;;;;;5033528;28;20110;-53
2023/05/16 08:42:23;;;;;;;4.55;1.90;;;26.10;99.90;;;;;;5032701;28;20040;-53
2023/05/16 08:44:49;;;;;;;4.88;2.40;;;26.20;99.90;;;;;;5033365;28;20100;-51
2023/05/16 08:47:20;;;;;;;5.90;2.30;;;26.20;99.90;;;;;;5033598;28;20029;-51
2023/05/16 08:49:51;;;;;;;5.68;2.15;;;26.20;99.90;;;;;;5033536;28;20037;-54
2023/05/16 08:52:20;;;;;;;3.58;2.65;;;26.20;99.90;;;;;;5033776;28;20018;-56
2023/05/16 08:54:49;;;;;;;6.57;2.38;;;26.20;99.90;;;;;;5033670;28;20418;-54
2023/05/16 08:57:16;;;;;;;4.40;3.20;;;26.20;99.90;;;;;;5032037;28;20053;-54
2023/05/16 08:59:43;;;;;;;5.13;3.25;;;26.20;99.90;;;;;;5033475;28;20496;-54
2023/05/16 09:02:09;;;;;;;8.32;5.40;;;26.20;99.90;;;;;;5033331;28;20080;-54
2023/05/16 09:04:36;;;;;;;9.98;5.75;;;26.20;99.90;;;;;;5033703;28;20049;-55
2023/05/16 09:07:02;;;;;;;9.27;5.35;;;26.20;99.90;;;;;;5033207;28;20045;-56
2023/05/16 09:09:29;;;;;;;7.88;4.60;;;26.20;99.90;;;;;;5033246;28;20045;-54
2023/05/16 09:11:55;;;;;;;8.10;4.18;;;26.20;99.90;;;;;;5033475;28;20045;-54
2023/05/16 09:14:21;;;;;;;9.07;4.43;;;26.30;99.90;;;;;;5033251;28;20022;-54
2023/05/16 09:17:04;;;;;;;7.03;4.53;;;26.30;99.90;;;;;;5040863;28;20492;-54
2023/05/16 09:19:40;;;;;;;7.80;4.10;;;26.30;99.90;;;;;;5031194;28;20022;-54
2023/05/16 09:22:11;;;;;;;8.27;4.93;;;26.30;99.90;;;;;;5050467;28;20017;-54
2023/05/16 09:24:44;;;;;;;6.82;4.80;;;26.20;99.90;;;;;;5032284;28;20025;-53
2023/05/16 09:27:11;;;;;;;8.15;4.15;;;26.30;99.90;;;;;;5031626;28;20083;-54
2023/05/16 09:29:42;;;;;;;7.10;4.63;;;26.30;99.90;;;;;;5032838;28;20045;-54
2023/05/16 09:32:13;;;;;;;5.88;4.72;;;26.30;99.90;;;;;;5043864;28;20016;-54
2023/05/16 09:34:43;;;;;;;5.93;4.95;;;26.30;99.90;;;;;;5033260;28;20029;-55
2023/05/16 09:37:10;;;;;;;6.68;5.00;;;26.30;99.90;;;;;;5032921;28;20029;-54
2023/05/16 09:39:38;;;;;;;7.05;5.05;;;26.30;99.90;;;;;;5034247;28;20021;-54
2023/05/16 09:42:04;;;;;;;7.95;4.68;;;26.30;99.90;;;;;;5032798;28;20362;-53
2023/05/16 09:44:31;;;;;;;11.27;4.18;;;26.30;99.90;;;;;;5032119;28;20555;-54
2023/05/16 09:46:57;;;;;;;6.95;4.13;;;26.30;99.90;;;;;;5031029;28;20025;-55
2023/05/16 09:49:23;;;;;;;7.28;3.20;;;26.30;99.90;;;;;;5032111;28;20103;-54
2023/05/16 09:51:49;;;;;;;6.50;3.40;;;26.30;99.90;;;;;;5032649;28;20018;-53
2023/05/16 09:54:15;;;;;;;6.38;2.53;;;26.40;99.90;;;;;;5031131;28;20060;-52
2023/05/16 09:56:50;;;;;;;6.95;2.97;;;26.40;99.90;;;;;;5029266;28;20335;-52
2023/05/16 09:59:16;;;;;;;5.57;2.28;;;26.40;99.90;;;;;;5032379;28;20365;-51
2023/05/16 10:01:43;;;;;;;3.38;2.17;;;26.40;99.90;;;;;;5032401;28;20049;-53
2023/05/16 10:04:12;;;;;;;7.57;2.50;;;26.40;99.90;;;;;;5032570;28;20416;-54
2023/05/16 10:06:41;;;;;;;11.30;2.30;;;26.40;99.90;;;;;;5032222;28;20028;-52
2023/05/16 10:09:11;;;;;;;7.40;2.50;;;26.40;99.90;;;;;;5032286;28;20386;-53
2023/05/16 10:11:41;;;;;;;7.05;2.10;;;26.50;99.90;;;;;;5037432;28;20100;-54
2023/05/16 10:14:10;;;;;;;13.27;6.10;;;26.50;99.90;;;;;;5035022;28;20025;-53
2023/05/16 10:16:37;;;;;;;8.15;3.38;;;26.60;99.90;;;;;;5031860;28;20025;-54
2023/05/16 10:19:04;;;;;;;9.93;4.07;;;26.60;99.90;;;;;;5032079;28;20504;-55
2023/05/16 10:21:32;;;;;;;9.23;3.45;;;26.60;99.90;;;;;;5032235;28;20539;-55
2023/05/16 10:24:02;;;;;;;10.23;2.72;;;26.60;99.90;;;;;;5031375;28;20032;-52
2023/05/16 10:26:29;;;;;;;43.67;5.32;;;26.70;99.90;;;;;;5029062;28;20032;-55
2023/05/16 10:28:55;;;;;;;17.87;3.10;;;26.70;99.90;;;;;;5031772;28;20033;-54
2023/05/16 10:31:21;;;;;;;6.00;2.60;;;26.70;99.90;;;;;;5031945;28;20072;-56
2023/05/16 10:33:47;;;;;;;6.10;1.80;;;26.70;99.90;;;;;;5040124;28;20022;-55
2023/05/16 10:36:14;;;;;;;7.03;1.83;;;26.80;99.90;;;;;;5030896;28;20021;-55
2023/05/16 10:38:41;;;;;;;11.80;1.98;;;26.80;99.90;;;;;;5031784;28;20520;-54
2023/05/16 10:41:08;;;;;;;7.82;1.80;;;26.80;99.90;;;;;;5041225;28;20482;-54
2023/05/16 10:43:33;;;;;;;10.90;2.00;;;26.80;99.90;;;;;;5032020;28;20025;-55
2023/05/16 10:46:10;;;;;;;4.18;1.50;;;26.90;99.90;;;;;;5030322;28;20034;-54
2023/05/16 10:48:40;;;;;;;7.00;1.80;;;26.90;99.90;;;;;;5030138;28;20029;-56
2023/05/16 10:51:33;;;;;;;3.25;1.55;;;26.90;99.90;;;;;;5031864;28;20043;-55
2023/05/16 10:54:06;;;;;;;8.13;3.28;;;27.00;99.90;;;;;;5028843;28;20048;-55
2023/05/16 10:56:32;;;;;;;6.93;3.95;;;27.00;99.90;;;;;;5034242;28;20072;-56
2023/05/16 10:58:58;;;;;;;10.07;5.53;;;27.00;99.90;;;;;;5035496;28;20498;-53
2023/05/16 11:01:27;;;;;;;5.40;2.45;;;27.00;99.90;;;;;;5035579;28;20405;-55
2023/05/16 11:03:56;;;;;;;6.25;3.38;;;27.10;99.90;;;;;;5047724;28;20066;-55
2023/05/16 11:06:34;;;;;;;7.60;3.80;;;27.10;99.90;;;;;;5035350;28;20033;-56
2023/05/16 11:09:16;;;;;;;13.75;5.40;;;27.10;99.90;;;;;;5033180;28;20041;-56
2023/05/16 11:11:46;;;;;;;7.65;4.05;;;27.10;99.90;;;;;;5035457;28;20421;-54
2023/05/16 11:14:31;;;;;;;7.65;3.67;;;27.20;99.90;;;;;;5038281;28;20017;-56
2023/05/16 11:17:09;;;;;;;6.15;2.13;;;27.10;99.90;;;;;;5043125;28;20033;-55
2023/05/16 11:19:50;;;;;;;6.60;2.72;;;27.10;99.90;;;;;;5034473;28;20017;-56
2023/05/16 11:22:20;;;;;;;7.00;3.00;;;27.10;99.90;;;;;;5035508;28;20104;-55
2023/05/16 11:24:58;;;;;;;11.75;6.32;;;27.20;99.90;;;;;;5033586;28;20025;-55
2023/05/16 11:27:26;;;;;;;10.95;4.65;;;27.10;99.90;;;;;;5035066;28;20025;-57
2023/05/16 11:29:55;;;;;;;6.70;4.20;;;27.20;99.90;;;;;;5033788;28;20021;-57
2023/05/16 11:32:22;;;;;;;6.63;3.95;;;27.10;99.90;;;;;;5035396;28;20028;-57
2023/05/16 11:34:49;;;;;;;7.50;3.33;;;27.20;99.90;;;;;;5032141;28;20250;-57
2023/05/16 11:37:16;;;;;;;5.13;2.17;;;27.20;99.90;;;;;;5034928;28;20469;-52
2023/05/16 11:39:42;;;;;;;10.85;6.45;;;27.20;99.90;;;;;;5034715;28;20385;-56
2023/05/16 11:42:08;;;;;;;16.95;10.02;;;27.20;99.90;;;;;;5040080;28;20059;-56
2023/05/16 11:44:34;;;;;;;42.65;21.42;;;27.20;99.90;;;;;;5033724;28;20038;-57
2023/05/16 11:47:03;;;;;;;18.90;9.23;;;27.20;99.90;;;;;;5038849;28;20040;-55
2023/05/16 11:49:29;;;;;;;22.48;14.13;;;27.20;99.90;;;;;;5036435;28;20555;-54
2023/05/16 11:51:56;;;;;;;16.50;10.07;;;27.20;99.90;;;;;;5033308;28;20469;-56
2023/05/16 11:54:23;;;;;;;19.75;8.27;;;27.30;99.90;;;;;;5034724;28;20027;-56
2023/05/16 11:56:50;;;;;;;18.87;8.57;;;27.30;99.90;;;;;;5040606;28;20021;-58
2023/05/16 11:59:19;;;;;;;8.20;4.75;;;27.30;99.90;;;;;;5030490;28;20116;-57
2023/05/16 12:01:49;;;;;;;13.40;7.32;;;27.30;99.90;;;;;;5031966;28;20038;-54
2023/05/16 12:04:16;;;;;;;7.88;4.85;;;27.30;99.90;;;;;;5032363;28;20033;-56
2023/05/16 12:06:43;;;;;;;12.73;3.63;;;27.40;99.90;;;;;;5042697;28;20029;-55
2023/05/16 12:09:14;;;;;;;11.02;3.22;;;27.30;99.90;;;;;;5032510;28;20042;-55
2023/05/16 12:11:41;;;;;;;5.28;2.50;;;27.40;99.90;;;;;;5034562;28;20026;-55
2023/05/16 12:14:09;;;;;;;4.75;2.50;;;27.40;99.90;;;;;;5032161;28;20079;-55
2023/05/16 12:16:36;;;;;;;7.32;2.90;;;27.40;99.90;;;;;;5043907;28;20029;-54
2023/05/16 12:19:04;;;;;;;7.65;3.42;;;27.40;99.90;;;;;;5035474;28;20120;-56
2023/05/16 12:21:31;;;;;;;6.82;3.00;;;27.40;99.90;;;;;;5034195;28;20025;-55
2023/05/16 12:23:57;;;;;;;8.32;3.58;;;27.40;99.90;;;;;;5034400;28;20453;-56
2023/05/16 12:26:29;;;;;;;8.13;3.38;;;27.40;99.90;;;;;;5030939;28;20034;-55
2023/05/16 12:29:04;;;;;;;9.70;3.58;;;27.40;99.90;;;;;;5032082;28;20493;-55
2023/05/16 12:31:37;;;;;;;8.02;3.10;;;27.50;99.90;;;;;;5034300;28;20022;-54
2023/05/16 12:34:02;;;;;;;4.60;2.70;;;27.50;99.90;;;;;;5033756;28;20032;-54
2023/05/16 12:36:33;;;;;;;7.47;2.78;;;27.50;99.90;;;;;;5038750;28;20029;-53
2023/05/16 12:39:03;;;;;;;9.48;2.70;;;27.50;99.90;;;;;;5033611;28;20116;-56
2023/05/16 12:41:30;;;;;;;7.47;2.45;;;27.50;99.90;;;;;;5032945;28;20025;-54